sensor_id;sensor_type;location;lat;lon;timestamp;pressure;altitude;pressure_sealevel;temperature;humidity
61359;BME280;47228;46.762;23.598;2023-01-31T00:02:22;96596.56;;;-1.11;80.39
61359;BME280;47228;46.762;23.598;2023-01-31T00:04:50;96600.91;;;-1.12;80.74
61359;BME280;47228;46.762;23.598;2023-01-31T00:07:18;96601.52;;;-1.13;80.66
61359;BME280;47228;46.762;23.598;2023-01-31T00:09:46;96598.27;;;-1.14;80.49
61359;BME280;47228;46.762;23.598;2023-01-31T00:12:14;96602.62;;;-1.18;80.36
61359;BME280;47228;46.762;23.598;2023-01-31T00:14:42;96601.91;;;-1.20;80.66
61359;BME280;47228;46.762;23.598;2023-01-31T00:17:10;96604.24;;;-1.19;80.86
61359;BME280;47228;46.762;23.598;2023-01-31T00:19:38;96603.05;;;-1.17;80.61
61359;BME280;47228;46.762;23.598;2023-01-31T00:22:06;96604.04;;;-1.20;80.23
61359;BME280;47228;46.762;23.598;2023-01-31T00:24:34;96599.39;;;-1.22;80.77
61359;BME280;47228;46.762;23.598;2023-01-31T00:27:02;96596.95;;;-1.22;80.93
61359;BME280;47228;46.762;23.598;2023-01-31T00:29:30;96602.89;;;-1.21;80.84
61359;BME280;47228;46.762;23.598;2023-01-31T00:31:58;96603.17;;;-1.18;81.09
61359;BME280;47228;46.762;23.598;2023-01-31T00:34:26;96600.80;;;-1.13;81.24
61359;BME280;47228;46.762;23.598;2023-01-31T00:36:54;96598.20;;;-1.10;81.37
61359;BME280;47228;46.762;23.598;2023-01-31T00:39:22;96597.46;;;-1.05;81.31
61359;BME280;47228;46.762;23.598;2023-01-31T00:41:50;96595.17;;;-1.03;81.26
61359;BME280;47228;46.762;23.598;2023-01-31T00:44:17;96592.30;;;-1.00;81.26
61359;BME280;47228;46.762;23.598;2023-01-31T00:46:45;96593.62;;;-0.98;81.43
61359;BME280;47228;46.762;23.598;2023-01-31T00:49:13;96591.09;;;-0.97;81.23
61359;BME280;47228;46.762;23.598;2023-01-31T00:51:41;96588.45;;;-0.97;81.12
61359;BME280;47228;46.762;23.598;2023-01-31T00:54:09;96586.61;;;-0.97;81.11
61359;BME280;47228;46.762;23.598;2023-01-31T00:56:37;96585.02;;;-1.00;80.95
61359;BME280;47228;46.762;23.598;2023-01-31T00:59:05;96581.88;;;-1.02;81.48
61359;BME280;47228;46.762;23.598;2023-01-31T01:01:36;96587.17;;;-1.01;81.58
61359;BME280;47228;46.762;23.598;2023-01-31T01:04:05;96586.18;;;-1.02;81.50
61359;BME280;47228;46.762;23.598;2023-01-31T01:06:33;96584.94;;;-1.03;81.55
61359;BME280;47228;46.762;23.598;2023-01-31T01:09:02;96584.58;;;-1.03;81.67
61359;BME280;47228;46.762;23.598;2023-01-31T01:11:31;96587.80;;;-1.02;81.49
61359;BME280;47228;46.762;23.598;2023-01-31T01:14:00;96584.23;;;-1.02;81.54
61359;BME280;47228;46.762;23.598;2023-01-31T01:16:34;96586.31;;;-0.99;81.57
61359;BME280;47228;46.762;23.598;2023-01-31T01:19:05;96587.80;;;-1.01;81.57
61359;BME280;47228;46.762;23.598;2023-01-31T01:21:33;96590.92;;;-1.03;81.65
61359;BME280;47228;46.762;23.598;2023-01-31T01:24:10;96587.47;;;-1.04;81.48
61359;BME280;47228;46.762;23.598;2023-01-31T01:26:39;96588.81;;;-1.06;81.82
61359;BME280;47228;46.762;23.598;2023-01-31T01:29:08;96588.52;;;-1.07;81.85
61359;BME280;47228;46.762;23.598;2023-01-31T01:31:37;96584.41;;;-1.07;81.92
61359;BME280;47228;46.762;23.598;2023-01-31T01:34:10;96584.13;;;-1.06;82.11
61359;BME280;47228;46.762;23.598;2023-01-31T01:36:39;96588.16;;;-1.08;81.91
61359;BME280;47228;46.762;23.598;2023-01-31T01:39:08;96587.91;;;-1.13;81.94
61359;BME280;47228;46.762;23.598;2023-01-31T01:41:37;96591.10;;;-1.15;82.27
61359;BME280;47228;46.762;23.598;2023-01-31T01:47:39;96598.59;;;-1.15;82.42
61359;BME280;47228;46.762;23.598;2023-01-31T01:53:17;96606.43;;;-1.18;82.09
61359;BME280;47228;46.762;23.598;2023-01-31T01:55:49;96613.98;;;-1.20;82.14
61359;BME280;47228;46.762;23.598;2023-01-31T01:58:31;96618.00;;;-1.21;82.51
61359;BME280;47228;46.762;23.598;2023-01-31T02:01:02;96620.56;;;-1.18;82.93
61359;BME280;47228;46.762;23.598;2023-01-31T02:03:31;96622.16;;;-1.15;82.94
61359;BME280;47228;46.762;23.598;2023-01-31T02:06:04;96621.97;;;-1.11;82.88
61359;BME280;47228;46.762;23.598;2023-01-31T02:08:34;96621.49;;;-1.06;83.07
61359;BME280;47228;46.762;23.598;2023-01-31T02:11:23;96621.95;;;-1.03;82.79
61359;BME280;47228;46.762;23.598;2023-01-31T02:14:06;96624.58;;;-1.02;82.56
61359;BME280;47228;46.762;23.598;2023-01-31T02:16:35;96626.73;;;-1.01;82.56
61359;BME280;47228;46.762;23.598;2023-01-31T02:19:06;96627.76;;;-1.00;82.64
61359;BME280;47228;46.762;23.598;2023-01-31T02:41:55;96640.32;;;-1.01;82.79
61359;BME280;47228;46.762;23.598;2023-01-31T02:44:48;96641.42;;;-1.04;82.75
61359;BME280;47228;46.762;23.598;2023-01-31T02:55:37;96649.71;;;-1.12;82.97
61359;BME280;47228;46.762;23.598;2023-01-31T02:58:30;96647.10;;;-1.18;82.79
61359;BME280;47228;46.762;23.598;2023-01-31T03:01:01;96647.83;;;-1.27;82.75
61359;BME280;47228;46.762;23.598;2023-01-31T03:03:33;96639.05;;;-1.37;82.73
61359;BME280;47228;46.762;23.598;2023-01-31T03:14:29;96620.09;;;-1.29;84.22
61359;BME280;47228;46.762;23.598;2023-01-31T03:20:09;96634.98;;;-1.22;83.70
61359;BME280;47228;46.762;23.598;2023-01-31T03:22:56;96643.54;;;-1.24;83.54
61359;BME280;47228;46.762;23.598;2023-01-31T03:25:28;96648.55;;;-1.28;83.75
61359;BME280;47228;46.762;23.598;2023-01-31T03:28:01;96648.20;;;-1.26;84.12
61359;BME280;47228;46.762;23.598;2023-01-31T03:30:39;96645.14;;;-1.23;84.28
61359;BME280;47228;46.762;23.598;2023-01-31T03:33:45;96649.59;;;-1.18;84.43
61359;BME280;47228;46.762;23.598;2023-01-31T03:39:12;96648.73;;;-1.13;84.33
61359;BME280;47228;46.762;23.598;2023-01-31T03:41:45;96647.20;;;-1.09;84.35
61359;BME280;47228;46.762;23.598;2023-01-31T03:47:01;96646.11;;;-1.09;84.26
61359;BME280;47228;46.762;23.598;2023-01-31T03:49:31;96642.19;;;-1.10;84.21
61359;BME280;47228;46.762;23.598;2023-01-31T03:52:06;96641.11;;;-1.11;84.10
61359;BME280;47228;46.762;23.598;2023-01-31T03:54:40;96640.81;;;-1.13;84.02
61359;BME280;47228;46.762;23.598;2023-01-31T03:57:17;96644.30;;;-1.18;83.87
61359;BME280;47228;46.762;23.598;2023-01-31T03:59:51;96645.77;;;-1.22;84.08
61359;BME280;47228;46.762;23.598;2023-01-31T04:02:27;96654.37;;;-1.25;84.23
61359;BME280;47228;46.762;23.598;2023-01-31T04:05:04;96655.36;;;-1.32;84.17
61359;BME280;47228;46.762;23.598;2023-01-31T04:07:34;96657.55;;;-1.37;84.48
61359;BME280;47228;46.762;23.598;2023-01-31T04:10:11;96657.14;;;-1.36;84.73
61359;BME280;47228;46.762;23.598;2023-01-31T04:12:40;96654.23;;;-1.34;84.83
61359;BME280;47228;46.762;23.598;2023-01-31T04:15:09;96653.09;;;-1.34;84.65
61359;BME280;47228;46.762;23.598;2023-01-31T04:17:37;96653.38;;;-1.35;84.63
61359;BME280;47228;46.762;23.598;2023-01-31T04:20:06;96655.75;;;-1.36;84.75
61359;BME280;47228;46.762;23.598;2023-01-31T04:22:34;96661.09;;;-1.35;84.73
61359;BME280;47228;46.762;23.598;2023-01-31T04:25:03;96662.52;;;-1.36;84.61
61359;BME280;47228;46.762;23.598;2023-01-31T04:27:31;96655.28;;;-1.38;84.54
61359;BME280;47228;46.762;23.598;2023-01-31T04:29:58;96652.27;;;-1.39;84.58
61359;BME280;47228;46.762;23.598;2023-01-31T04:32:27;96651.95;;;-1.40;84.65
61359;BME280;47228;46.762;23.598;2023-01-31T04:34:55;96655.94;;;-1.42;84.67
61359;BME280;47228;46.762;23.598;2023-01-31T04:37:23;96661.39;;;-1.40;84.77
61359;BME280;47228;46.762;23.598;2023-01-31T04:39:50;96668.98;;;-1.40;84.80
61359;BME280;47228;46.762;23.598;2023-01-31T04:42:18;96675.44;;;-1.38;84.94
61359;BME280;47228;46.762;23.598;2023-01-31T04:44:46;96670.90;;;-1.40;84.74
61359;BME280;47228;46.762;23.598;2023-01-31T04:47:14;96669.24;;;-1.43;84.95
61359;BME280;47228;46.762;23.598;2023-01-31T04:49:42;96666.50;;;-1.44;85.17
61359;BME280;47228;46.762;23.598;2023-01-31T04:52:10;96669.41;;;-1.43;85.14
61359;BME280;47228;46.762;23.598;2023-01-31T04:54:38;96672.56;;;-1.43;85.11
61359;BME280;47228;46.762;23.598;2023-01-31T04:57:08;96676.76;;;-1.41;85.40
61359;BME280;47228;46.762;23.598;2023-01-31T04:59:36;96676.45;;;-1.36;85.75
61359;BME280;47228;46.762;23.598;2023-01-31T05:02:04;96677.39;;;-1.31;85.84
61359;BME280;47228;46.762;23.598;2023-01-31T05:04:33;96679.97;;;-1.29;85.53
61359;BME280;47228;46.762;23.598;2023-01-31T05:07:01;96679.71;;;-1.30;85.06
61359;BME280;47228;46.762;23.598;2023-01-31T05:09:29;96677.12;;;-1.34;84.69
61359;BME280;47228;46.762;23.598;2023-01-31T05:11:57;96670.48;;;-1.37;84.70
61359;BME280;47228;46.762;23.598;2023-01-31T05:14:25;96674.42;;;-1.40;84.56
61359;BME280;47228;46.762;23.598;2023-01-31T05:16:54;96679.11;;;-1.44;84.64
61359;BME280;47228;46.762;23.598;2023-01-31T05:19:22;96676.77;;;-1.47;84.84
61359;BME280;47228;46.762;23.598;2023-01-31T05:21:50;96672.23;;;-1.49;84.84
61359;BME280;47228;46.762;23.598;2023-01-31T05:24:21;96665.94;;;-1.48;84.89
61359;BME280;47228;46.762;23.598;2023-01-31T05:26:49;96657.88;;;-1.49;85.03
61359;BME280;47228;46.762;23.598;2023-01-31T05:29:19;96654.98;;;-1.50;85.13
61359;BME280;47228;46.762;23.598;2023-01-31T05:31:50;96656.90;;;-1.50;84.99
61359;BME280;47228;46.762;23.598;2023-01-31T05:34:19;96664.71;;;-1.50;85.11
61359;BME280;47228;46.762;23.598;2023-01-31T05:36:47;96674.60;;;-1.50;84.97
61359;BME280;47228;46.762;23.598;2023-01-31T05:39:15;96678.84;;;-1.47;85.14
61359;BME280;47228;46.762;23.598;2023-01-31T05:41:44;96680.58;;;-1.45;85.08
61359;BME280;47228;46.762;23.598;2023-01-31T05:44:11;96681.36;;;-1.42;85.20
61359;BME280;47228;46.762;23.598;2023-01-31T05:46:41;96677.52;;;-1.40;85.16
61359;BME280;47228;46.762;23.598;2023-01-31T05:49:09;96676.74;;;-1.41;84.91
61359;BME280;47228;46.762;23.598;2023-01-31T05:51:39;96679.23;;;-1.44;84.79
61359;BME280;47228;46.762;23.598;2023-01-31T05:54:07;96687.02;;;-1.47;84.62
61359;BME280;47228;46.762;23.598;2023-01-31T05:56:35;96692.25;;;-1.49;84.61
61359;BME280;47228;46.762;23.598;2023-01-31T05:59:03;96694.15;;;-1.49;84.78
61359;BME280;47228;46.762;23.598;2023-01-31T06:01:31;96698.80;;;-1.47;84.76
61359;BME280;47228;46.762;23.598;2023-01-31T06:04:00;96705.78;;;-1.46;84.86
61359;BME280;47228;46.762;23.598;2023-01-31T06:06:28;96710.06;;;-1.45;84.63
61359;BME280;47228;46.762;23.598;2023-01-31T06:08:56;96715.95;;;-1.45;84.77
61359;BME280;47228;46.762;23.598;2023-01-31T06:11:24;96722.66;;;-1.42;85.02
61359;BME280;47228;46.762;23.598;2023-01-31T06:13:52;96727.42;;;-1.37;84.90
61359;BME280;47228;46.762;23.598;2023-01-31T06:16:24;96729.52;;;-1.33;84.66
61359;BME280;47228;46.762;23.598;2023-01-31T06:18:53;96730.64;;;-1.32;84.51
61359;BME280;47228;46.762;23.598;2023-01-31T06:21:22;96738.63;;;-1.34;84.39
61359;BME280;47228;46.762;23.598;2023-01-31T06:23:50;96739.09;;;-1.34;84.58
61359;BME280;47228;46.762;23.598;2023-01-31T06:26:18;96736.81;;;-1.33;84.61
61359;BME280;47228;46.762;23.598;2023-01-31T06:28:46;96738.94;;;-1.30;84.69
61359;BME280;47228;46.762;23.598;2023-01-31T06:31:14;96744.41;;;-1.27;84.64
61359;BME280;47228;46.762;23.598;2023-01-31T06:33:42;96737.13;;;-1.23;84.82
61359;BME280;47228;46.762;23.598;2023-01-31T06:36:15;96731.18;;;-1.20;84.74
61359;BME280;47228;46.762;23.598;2023-01-31T06:38:52;96733.52;;;-1.17;84.78
61359;BME280;47228;46.762;23.598;2023-01-31T06:41:20;96731.35;;;-1.14;84.52
61359;BME280;47228;46.762;23.598;2023-01-31T06:43:48;96733.52;;;-1.11;84.36
61359;BME280;47228;46.762;23.598;2023-01-31T06:46:16;96735.60;;;-1.07;84.41
61359;BME280;47228;46.762;23.598;2023-01-31T06:48:44;96741.36;;;-1.02;84.66
61359;BME280;47228;46.762;23.598;2023-01-31T06:51:14;96742.81;;;-0.97;84.52
61359;BME280;47228;46.762;23.598;2023-01-31T06:53:42;96744.99;;;-0.96;84.10
61359;BME280;47228;46.762;23.598;2023-01-31T06:56:10;96745.61;;;-0.95;84.19
61359;BME280;47228;46.762;23.598;2023-01-31T06:58:38;96751.96;;;-0.92;84.33
61359;BME280;47228;46.762;23.598;2023-01-31T07:01:10;96749.86;;;-0.88;84.28
61359;BME280;47228;46.762;23.598;2023-01-31T07:03:39;96752.98;;;-0.83;84.58
61359;BME280;47228;46.762;23.598;2023-01-31T07:06:08;96761.50;;;-0.75;84.55
61359;BME280;47228;46.762;23.598;2023-01-31T07:08:36;96760.59;;;-0.69;84.66
61359;BME280;47228;46.762;23.598;2023-01-31T07:11:04;96762.70;;;-0.64;84.23
61359;BME280;47228;46.762;23.598;2023-01-31T07:13:32;96765.83;;;-0.58;84.41
61359;BME280;47228;46.762;23.598;2023-01-31T07:16:00;96765.76;;;-0.52;84.49
61359;BME280;47228;46.762;23.598;2023-01-31T07:18:28;96772.34;;;-0.46;84.30
61359;BME280;47228;46.762;23.598;2023-01-31T07:20:56;96775.84;;;-0.39;84.16
61359;BME280;47228;46.762;23.598;2023-01-31T07:23:24;96782.39;;;-0.33;83.57
61359;BME280;47228;46.762;23.598;2023-01-31T07:25:52;96781.30;;;-0.29;83.44
61359;BME280;47228;46.762;23.598;2023-01-31T07:28:20;96791.23;;;-0.26;83.15
61359;BME280;47228;46.762;23.598;2023-01-31T07:30:48;96795.38;;;-0.21;83.24
61359;BME280;47228;46.762;23.598;2023-01-31T07:33:18;96799.98;;;-0.17;83.24
61359;BME280;47228;46.762;23.598;2023-01-31T07:35:46;96804.88;;;-0.13;82.98
61359;BME280;47228;46.762;23.598;2023-01-31T07:38:14;96817.54;;;-0.09;82.79
61359;BME280;47228;46.762;23.598;2023-01-31T07:40:42;96817.27;;;-0.07;82.44
61359;BME280;47228;46.762;23.598;2023-01-31T07:43:12;96819.17;;;-0.03;82.34
61359;BME280;47228;46.762;23.598;2023-01-31T07:45:40;96819.23;;;0.00;82.13
61359;BME280;47228;46.762;23.598;2023-01-31T07:48:09;96822.54;;;0.02;81.85
61359;BME280;47228;46.762;23.598;2023-01-31T07:50:37;96824.87;;;0.02;81.63
61359;BME280;47228;46.762;23.598;2023-01-31T07:53:05;96829.80;;;0.03;81.56
61359;BME280;47228;46.762;23.598;2023-01-31T07:55:33;96837.20;;;0.05;81.82
61359;BME280;47228;46.762;23.598;2023-01-31T07:58:01;96840.11;;;0.09;81.56
61359;BME280;47228;46.762;23.598;2023-01-31T08:00:29;96842.70;;;0.14;81.60
61359;BME280;47228;46.762;23.598;2023-01-31T08:03:25;96848.81;;;0.19;81.69
61359;BME280;47228;46.762;23.598;2023-01-31T08:06:08;96851.48;;;0.25;81.47
61359;BME280;47228;46.762;23.598;2023-01-31T08:08:37;96853.80;;;0.34;81.47
61359;BME280;47228;46.762;23.598;2023-01-31T08:11:06;96860.17;;;0.42;81.35
61359;BME280;47228;46.762;23.598;2023-01-31T08:13:34;96860.05;;;0.48;81.52
61359;BME280;47228;46.762;23.598;2023-01-31T08:16:04;96859.55;;;0.54;81.37
61359;BME280;47228;46.762;23.598;2023-01-31T08:18:32;96864.21;;;0.58;81.38
61359;BME280;47228;46.762;23.598;2023-01-31T08:21:00;96869.59;;;0.60;81.16
61359;BME280;47228;46.762;23.598;2023-01-31T08:23:29;96869.55;;;0.60;80.95
61359;BME280;47228;46.762;23.598;2023-01-31T08:26:03;96864.41;;;0.62;81.24
61359;BME280;47228;46.762;23.598;2023-01-31T08:28:37;96866.34;;;0.66;81.09
61359;BME280;47228;46.762;23.598;2023-01-31T08:31:05;96873.30;;;0.70;81.08
61359;BME280;47228;46.762;23.598;2023-01-31T08:33:36;96872.61;;;0.75;81.20
61359;BME280;47228;46.762;23.598;2023-01-31T08:36:28;96875.03;;;0.81;81.36
61359;BME280;47228;46.762;23.598;2023-01-31T08:38:59;96877.48;;;0.86;81.19
61359;BME280;47228;46.762;23.598;2023-01-31T08:41:28;96878.36;;;0.89;81.11
61359;BME280;47228;46.762;23.598;2023-01-31T08:43:57;96877.14;;;0.93;80.70
61359;BME280;47228;46.762;23.598;2023-01-31T08:46:31;96878.32;;;0.93;80.21
61359;BME280;47228;46.762;23.598;2023-01-31T08:49:04;96872.50;;;0.97;80.46
61359;BME280;47228;46.762;23.598;2023-01-31T08:51:33;96872.23;;;1.05;80.54
61359;BME280;47228;46.762;23.598;2023-01-31T08:54:01;96875.84;;;1.11;80.31
61359;BME280;47228;46.762;23.598;2023-01-31T08:56:29;96880.23;;;1.13;79.66
61359;BME280;47228;46.762;23.598;2023-01-31T08:58:57;96886.15;;;1.13;79.95
61359;BME280;47228;46.762;23.598;2023-01-31T09:01:26;96888.07;;;1.16;80.33
61359;BME280;47228;46.762;23.598;2023-01-31T09:03:54;96892.75;;;1.19;79.92
61359;BME280;47228;46.762;23.598;2023-01-31T09:06:25;96900.84;;;1.21;79.66
61359;BME280;47228;46.762;23.598;2023-01-31T09:08:55;96906.27;;;1.19;79.15
61359;BME280;47228;46.762;23.598;2023-01-31T09:11:27;96915.11;;;1.16;78.94
61359;BME280;47228;46.762;23.598;2023-01-31T09:13:55;96923.58;;;1.15;79.06
61359;BME280;47228;46.762;23.598;2023-01-31T09:16:23;96924.55;;;1.14;79.13
61359;BME280;47228;46.762;23.598;2023-01-31T09:18:52;96924.63;;;1.13;79.35
61359;BME280;47228;46.762;23.598;2023-01-31T09:21:21;96922.15;;;1.13;79.38
61359;BME280;47228;46.762;23.598;2023-01-31T09:23:54;96921.29;;;1.16;79.58
61359;BME280;47228;46.762;23.598;2023-01-31T09:26:23;96923.67;;;1.20;79.42
61359;BME280;47228;46.762;23.598;2023-01-31T09:28:52;96923.27;;;1.22;79.08
61359;BME280;47228;46.762;23.598;2023-01-31T09:31:20;96918.57;;;1.22;79.16
61359;BME280;47228;46.762;23.598;2023-01-31T09:33:49;96920.09;;;1.24;79.22
61359;BME280;47228;46.762;23.598;2023-01-31T09:36:19;96918.63;;;1.26;79.42
61359;BME280;47228;46.762;23.598;2023-01-31T09:38:47;96918.78;;;1.30;79.32
61359;BME280;47228;46.762;23.598;2023-01-31T09:43:51;96925.38;;;1.23;78.63
61359;BME280;47228;46.762;23.598;2023-01-31T09:46:24;96924.48;;;1.26;79.36
61359;BME280;47228;46.762;23.598;2023-01-31T09:48:55;96927.52;;;1.32;79.59
61359;BME280;47228;46.762;23.598;2023-01-31T09:51:25;96920.98;;;1.34;79.35
61359;BME280;47228;46.762;23.598;2023-01-31T09:53:55;96918.32;;;1.35;79.33
61359;BME280;47228;46.762;23.598;2023-01-31T09:56:44;96917.59;;;1.34;79.38
61359;BME280;47228;46.762;23.598;2023-01-31T09:59:24;96919.01;;;1.37;79.58
61359;BME280;47228;46.762;23.598;2023-01-31T10:01:58;96918.56;;;1.45;79.96
61359;BME280;47228;46.762;23.598;2023-01-31T10:07:28;96916.84;;;1.60;79.04
61359;BME280;47228;46.762;23.598;2023-01-31T10:10:14;96920.51;;;1.62;78.88
61359;BME280;47228;46.762;23.598;2023-01-31T10:12:52;96921.42;;;1.63;78.47
61359;BME280;47228;46.762;23.598;2023-01-31T10:18:11;96911.86;;;1.65;77.99
61359;BME280;47228;46.762;23.598;2023-01-31T10:20:49;96913.81;;;1.66;78.11
61359;BME280;47228;46.762;23.598;2023-01-31T10:23:31;96912.59;;;1.68;78.18
61359;BME280;47228;46.762;23.598;2023-01-31T10:26:03;96910.60;;;1.72;78.06
61359;BME280;47228;46.762;23.598;2023-01-31T10:28:38;96911.30;;;1.75;77.63
61359;BME280;47228;46.762;23.598;2023-01-31T10:31:26;96914.60;;;1.77;77.48
61359;BME280;47228;46.762;23.598;2023-01-31T10:42:20;96907.10;;;1.91;76.38
61359;BME280;47228;46.762;23.598;2023-01-31T10:50:26;96906.96;;;1.92;76.14
61359;BME280;47228;46.762;23.598;2023-01-31T10:53:34;96903.80;;;1.94;75.84
61359;BME280;47228;46.762;23.598;2023-01-31T10:56:33;96905.98;;;1.95;76.14
61359;BME280;47228;46.762;23.598;2023-01-31T10:59:35;96905.46;;;1.95;75.90
61359;BME280;47228;46.762;23.598;2023-01-31T11:02:17;96911.73;;;1.97;76.37
61359;BME280;47228;46.762;23.598;2023-01-31T11:04:45;96914.52;;;1.99;75.98
61359;BME280;47228;46.762;23.598;2023-01-31T11:07:14;96914.59;;;1.96;76.33
61359;BME280;47228;46.762;23.598;2023-01-31T11:09:47;96914.52;;;1.97;76.56
61359;BME280;47228;46.762;23.598;2023-01-31T11:12:15;96911.76;;;1.97;76.30
61359;BME280;47228;46.762;23.598;2023-01-31T11:14:43;96910.48;;;1.94;75.95
61359;BME280;47228;46.762;23.598;2023-01-31T11:17:20;96906.42;;;1.90;76.44
61359;BME280;47228;46.762;23.598;2023-01-31T11:19:54;96905.58;;;1.90;76.60
61359;BME280;47228;46.762;23.598;2023-01-31T11:22:29;96907.73;;;1.89;76.39
61359;BME280;47228;46.762;23.598;2023-01-31T11:24:59;96902.59;;;1.84;75.85
61359;BME280;47228;46.762;23.598;2023-01-31T11:27:42;96902.79;;;1.77;75.99
61359;BME280;47228;46.762;23.598;2023-01-31T11:30:30;96904.99;;;1.72;76.45
61359;BME280;47228;46.762;23.598;2023-01-31T11:33:02;96900.80;;;1.71;76.69
61359;BME280;47228;46.762;23.598;2023-01-31T11:35:32;96903.04;;;1.73;76.86
61359;BME280;47228;46.762;23.598;2023-01-31T11:40:38;96899.52;;;1.74;76.09
61359;BME280;47228;46.762;23.598;2023-01-31T11:43:26;96896.30;;;1.75;76.30
61359;BME280;47228;46.762;23.598;2023-01-31T11:45:59;96897.50;;;1.79;76.40
61359;BME280;47228;46.762;23.598;2023-01-31T11:48:38;96899.96;;;1.80;75.87
61359;BME280;47228;46.762;23.598;2023-01-31T11:51:09;96902.09;;;1.78;75.59
61359;BME280;47228;46.762;23.598;2023-01-31T11:56:20;96901.90;;;1.73;75.14
61359;BME280;47228;46.762;23.598;2023-01-31T11:58:53;96902.71;;;1.72;75.12
61359;BME280;47228;46.762;23.598;2023-01-31T12:01:23;96907.35;;;1.71;75.33
61359;BME280;47228;46.762;23.598;2023-01-31T12:03:58;96905.95;;;1.70;75.76
61359;BME280;47228;46.762;23.598;2023-01-31T12:09:17;96911.10;;;1.65;75.27
61359;BME280;47228;46.762;23.598;2023-01-31T12:14:22;96918.41;;;1.63;75.42
61359;BME280;47228;46.762;23.598;2023-01-31T12:16:53;96922.16;;;1.61;75.12
61359;BME280;47228;46.762;23.598;2023-01-31T12:22:35;96933.73;;;1.55;75.03
61359;BME280;47228;46.762;23.598;2023-01-31T12:28:50;96938.35;;;1.56;74.24
61359;BME280;47228;46.762;23.598;2023-01-31T12:31:39;96939.14;;;1.57;74.48
61359;BME280;47228;46.762;23.598;2023-01-31T13:01:39;96962.70;;;1.39;71.76
61359;BME280;47228;46.762;23.598;2023-01-31T13:06:47;96963.24;;;1.32;70.51
61359;BME280;47228;46.762;23.598;2023-01-31T13:09:31;96959.97;;;1.27;71.06
61359;BME280;47228;46.762;23.598;2023-01-31T13:12:05;96963.92;;;1.25;71.29
61359;BME280;47228;46.762;23.598;2023-01-31T13:14:43;96960.42;;;1.25;70.89
61359;BME280;47228;46.762;23.598;2023-01-31T13:17:14;96962.32;;;1.26;70.45
61359;BME280;47228;46.762;23.598;2023-01-31T13:19:56;96965.86;;;1.29;70.84
61359;BME280;47228;46.762;23.598;2023-01-31T13:22:45;96967.34;;;1.33;70.25
61359;BME280;47228;46.762;23.598;2023-01-31T13:28:14;96966.64;;;1.44;69.21
61359;BME280;47228;46.762;23.598;2023-01-31T13:30:54;96968.38;;;1.47;69.56
61359;BME280;47228;46.762;23.598;2023-01-31T13:33:29;96967.69;;;1.53;69.61
61359;BME280;47228;46.762;23.598;2023-01-31T13:38:43;96969.19;;;1.65;69.23
61359;BME280;47228;46.762;23.598;2023-01-31T13:41:37;96967.08;;;1.71;69.41
61359;BME280;47228;46.762;23.598;2023-01-31T13:44:12;96965.80;;;1.77;69.33
61359;BME280;47228;46.762;23.598;2023-01-31T13:47:05;96967.83;;;1.81;68.40
61359;BME280;47228;46.762;23.598;2023-01-31T13:49:47;96970.25;;;1.85;68.11
61359;BME280;47228;46.762;23.598;2023-01-31T13:52:28;96976.91;;;1.88;68.07
61359;BME280;47228;46.762;23.598;2023-01-31T13:55:01;96980.02;;;1.90;67.53
61359;BME280;47228;46.762;23.598;2023-01-31T13:57:39;96977.30;;;1.87;66.70
61359;BME280;47228;46.762;23.598;2023-01-31T14:00:37;96976.02;;;1.79;66.84
61359;BME280;47228;46.762;23.598;2023-01-31T14:03:10;96974.79;;;1.74;67.46
61359;BME280;47228;46.762;23.598;2023-01-31T14:08:30;96974.21;;;1.68;67.03
61359;BME280;47228;46.762;23.598;2023-01-31T14:11:29;96976.70;;;1.62;66.86
61359;BME280;47228;46.762;23.598;2023-01-31T14:14:17;96979.59;;;1.58;66.96
61359;BME280;47228;46.762;23.598;2023-01-31T14:17:10;96981.90;;;1.55;67.23
61359;BME280;47228;46.762;23.598;2023-01-31T14:22:25;96991.95;;;1.61;67.52
61359;BME280;47228;46.762;23.598;2023-01-31T14:28:01;96991.16;;;1.62;66.73
61359;BME280;47228;46.762;23.598;2023-01-31T14:30:40;96997.63;;;1.60;67.15
61359;BME280;47228;46.762;23.598;2023-01-31T14:36:01;97002.59;;;1.61;67.70
61359;BME280;47228;46.762;23.598;2023-01-31T14:55:21;97022.70;;;1.63;67.96
61359;BME280;47228;46.762;23.598;2023-01-31T14:58:03;97028.09;;;1.63;67.96
61359;BME280;47228;46.762;23.598;2023-01-31T15:00:35;97028.54;;;1.64;67.80
61359;BME280;47228;46.762;23.598;2023-01-31T15:03:19;97032.64;;;1.64;67.79
61359;BME280;47228;46.762;23.598;2023-01-31T15:05:51;97031.49;;;1.64;66.93
61359;BME280;47228;46.762;23.598;2023-01-31T15:11:10;97033.98;;;1.57;66.46
61359;BME280;47228;46.762;23.598;2023-01-31T15:13:43;97039.60;;;1.52;66.16
61359;BME280;47228;46.762;23.598;2023-01-31T15:19:04;97041.96;;;1.41;65.90
61359;BME280;47228;46.762;23.598;2023-01-31T15:21:46;97041.59;;;1.36;66.41
61359;BME280;47228;46.762;23.598;2023-01-31T15:24:29;97042.55;;;1.33;66.13
61359;BME280;47228;46.762;23.598;2023-01-31T15:27:00;97041.23;;;1.27;65.66
61359;BME280;47228;46.762;23.598;2023-01-31T15:29:35;97042.16;;;1.21;65.81
61359;BME280;47228;46.762;23.598;2023-01-31T15:32:39;97043.43;;;1.13;65.75
61359;BME280;47228;46.762;23.598;2023-01-31T15:43:34;97050.54;;;0.92;66.20
61359;BME280;47228;46.762;23.598;2023-01-31T15:46:19;97052.83;;;0.88;66.33
61359;BME280;47228;46.762;23.598;2023-01-31T15:48:48;97057.34;;;0.84;66.57
61359;BME280;47228;46.762;23.598;2023-01-31T15:51:17;97054.88;;;0.83;66.87
61359;BME280;47228;46.762;23.598;2023-01-31T15:53:46;97057.23;;;0.84;66.93
61359;BME280;47228;46.762;23.598;2023-01-31T15:56:24;97057.16;;;0.83;66.67
61359;BME280;47228;46.762;23.598;2023-01-31T15:58:55;97063.88;;;0.82;66.80
61359;BME280;47228;46.762;23.598;2023-01-31T16:01:26;97070.67;;;0.82;67.02
61359;BME280;47228;46.762;23.598;2023-01-31T16:03:58;97072.20;;;0.80;66.92
61359;BME280;47228;46.762;23.598;2023-01-31T16:06:31;97070.90;;;0.80;67.10
61359;BME280;47228;46.762;23.598;2023-01-31T16:09:03;97071.69;;;0.78;67.17
61359;BME280;47228;46.762;23.598;2023-01-31T16:11:33;97072.14;;;0.77;67.19
61359;BME280;47228;46.762;23.598;2023-01-31T16:14:04;97077.45;;;0.76;67.08